Juergen K — PBKV — position and weather

sailwx.info

Track history (hours):
 
Tides and Currents Weather Stations Pressure Air Temp Water Temp Dewpoint Dewpoint Depression Visibility Wind Speed Wind Dir Waves Ship Positions

Juergen K

Last reported at 2014-Oct-20 09:28 UTC. Time now 2014-Oct-20 09:48 UTC.
Position N 50°43' W 001°59'.

Length 89 m; draft 3.6 m.

Type: Cargo ship. MMSI: 244329000.

Date/timePositionNaut miles runAvg speedWind from/ knotsBaromVisibWave heightAir tempDewpointWater temp
2014-Oct-20 09:28N 50°43' W 001°59'0 0.0
2014-Oct-20 05:28N 50°43' W 001°59'0 0.0
2014-Oct-19 21:04N 50°43' W 001°59'0 0.0
2014-Oct-19 20:28N 50°43' W 001°59'0 0.0
2014-Oct-19 19:28N 50°43' W 001°59'0 0.0
2014-Oct-19 18:28N 50°43' W 001°59'0 0.0
2014-Oct-19 17:28N 50°43' W 001°59'0 0.0
2014-Oct-19 16:22N 50°43' W 001°59'0 0.0
2014-Oct-19 15:28N 50°43' W 001°59'0 0.0
2014-Oct-19 14:28N 50°43' W 001°59'0 0.0
2014-Oct-19 13:28N 50°43' W 001°59'0 0.0
2014-Oct-19 12:28N 50°43' W 001°59'0 0.0
2014-Oct-19 11:28N 50°43' W 001°59'0 0.0
2014-Oct-19 10:28N 50°43' W 001°59'0 0.0
2014-Oct-19 09:34N 50°43' W 001°59'5 5.3
2014-Oct-19 08:33N 50°39' W 001°54'5 4.7
2014-Oct-19 07:34N 50°37' W 001°47'21 6.7
2014-Oct-19 04:23N 50°30' W 001°16'  
2014-Oct-11 07:33N 37°60' W 009°38'9 9.4
2014-Oct-11 06:33N 37°51' W 009°35'9 9.3
2014-Oct-11 05:33N 37°42' W 009°32'38 9.3
2014-Oct-11 01:31N 37°05' W 009°22'40 8.1
2014-Oct-10 20:33N 36°39' W 008°43'9 8.8
2014-Oct-10 19:33N 36°37' W 008°33'  
Track history (hours):
 
Tides and Currents Weather Stations Pressure Air Temp Water Temp Dewpoint Dewpoint Depression Visibility Wind Speed Wind Dir Waves Ship Positions

Juergen K

Last reported at 2014-Oct-20 09:28 UTC. Time now 2014-Oct-20 09:48 UTC.
Position N 50°43' W 001°59'.

Length 89 m; draft 3.6 m.

Type: Cargo ship. MMSI: 244329000.

Date/timePositionNaut miles runAvg speedWind from/ knotsBaromVisibWave heightAir tempDewpointWater temp
2014-Oct-20 09:28N 50°43' W 001°59'0 0.0
2014-Oct-20 05:28N 50°43' W 001°59'0 0.0
2014-Oct-19 21:04N 50°43' W 001°59'0 0.0
2014-Oct-19 20:28N 50°43' W 001°59'0 0.0
2014-Oct-19 19:28N 50°43' W 001°59'0 0.0
2014-Oct-19 18:28N 50°43' W 001°59'0 0.0
2014-Oct-19 17:28N 50°43' W 001°59'0 0.0
2014-Oct-19 16:22N 50°43' W 001°59'0 0.0
2014-Oct-19 15:28N 50°43' W 001°59'0 0.0
2014-Oct-19 14:28N 50°43' W 001°59'0 0.0
2014-Oct-19 13:28N 50°43' W 001°59'0 0.0
2014-Oct-19 12:28N 50°43' W 001°59'0 0.0
2014-Oct-19 11:28N 50°43' W 001°59'0 0.0
2014-Oct-19 10:28N 50°43' W 001°59'0 0.0
2014-Oct-19 09:34N 50°43' W 001°59'5 5.3
2014-Oct-19 08:33N 50°39' W 001°54'5 4.7
2014-Oct-19 07:34N 50°37' W 001°47'21 6.7
2014-Oct-19 04:23N 50°30' W 001°16'  
2014-Oct-11 07:33N 37°60' W 009°38'9 9.4
2014-Oct-11 06:33N 37°51' W 009°35'9 9.3
2014-Oct-11 05:33N 37°42' W 009°32'38 9.3
2014-Oct-11 01:31N 37°05' W 009°22'40 8.1
2014-Oct-10 20:33N 36°39' W 008°43'9 8.8
2014-Oct-10 19:33N 36°37' W 008°33'  

Dump ship's entire track history